createdAt,value
2018-10-11T00:01:28.743Z,27.52
2018-10-11T00:03:57.019Z,28.90
2018-10-11T00:06:25.257Z,28.07
2018-10-11T00:08:53.519Z,30.08
2018-10-11T00:11:21.873Z,29.45
2018-10-11T00:13:50.184Z,29.45
2018-10-11T00:16:18.427Z,29.67
2018-10-11T00:18:46.700Z,29.35
2018-10-11T00:21:14.983Z,28.00
2018-10-11T00:23:43.254Z,30.97
2018-10-11T00:26:11.563Z,30.65
2018-10-11T00:28:39.838Z,28.75
2018-10-11T00:31:08.124Z,30.35
2018-10-11T00:33:36.389Z,29.82
2018-10-11T00:36:04.646Z,30.68
2018-10-11T00:38:32.987Z,30.00
2018-10-11T00:41:01.594Z,28.70
2018-10-11T00:43:29.964Z,32.03
2018-10-11T00:45:58.272Z,31.12
2018-10-11T00:48:26.632Z,29.45
2018-10-11T00:50:54.980Z,30.55
2018-10-11T00:53:23.280Z,30.45
2018-10-11T00:55:51.551Z,32.40
2018-10-11T00:58:19.878Z,30.23
2018-10-11T01:00:48.175Z,32.35
2018-10-11T01:03:16.451Z,30.45
2018-10-11T01:05:44.760Z,30.10
2018-10-11T01:08:13.030Z,31.55
2018-10-11T01:10:41.305Z,31.17
2018-10-11T01:13:09.603Z,31.65
2018-10-11T01:15:37.920Z,30.40
2018-10-11T01:18:06.261Z,31.65
2018-10-11T01:20:34.559Z,30.95
2018-10-11T01:23:02.980Z,32.48
2018-10-11T01:25:31.329Z,30.85
2018-10-11T01:27:59.608Z,30.40
2018-10-11T01:30:27.873Z,30.55
2018-10-11T01:32:56.355Z,32.55
2018-10-11T01:35:24.955Z,30.55
2018-10-11T01:37:53.192Z,32.28
2018-10-11T01:40:21.439Z,32.78
2018-10-11T01:42:59.474Z,33.80
2018-10-11T01:45:27.740Z,32.50
2018-10-11T01:47:56.270Z,33.25
2018-10-11T01:50:24.536Z,32.50
2018-10-11T01:52:52.774Z,32.48
2018-10-11T01:55:21.191Z,32.28
2018-10-11T01:57:49.435Z,33.42
2018-10-11T02:00:17.725Z,31.20
2018-10-11T02:02:45.955Z,32.08
2018-10-11T02:05:14.239Z,32.83
2018-10-11T02:07:42.628Z,31.50
2018-10-11T02:10:10.923Z,33.30
2018-10-11T02:12:39.320Z,33.08
2018-10-11T02:15:07.576Z,33.18
2018-10-11T02:17:35.850Z,34.15
2018-10-11T02:20:04.111Z,33.25
2018-10-11T02:22:32.352Z,33.48
2018-10-11T02:25:00.663Z,32.23
2018-10-11T02:27:28.914Z,34.70
2018-10-11T02:29:57.156Z,33.90
2018-10-11T02:32:25.981Z,33.73
2018-10-11T02:34:54.240Z,33.42
2018-10-11T02:37:22.512Z,33.88
2018-10-11T02:39:50.811Z,34.33
2018-10-11T02:42:19.108Z,33.73
2018-10-11T02:44:47.416Z,33.10
2018-10-11T02:47:15.695Z,33.15
2018-10-11T02:49:44.005Z,33.53
2018-10-11T02:52:12.568Z,34.67
2018-10-11T02:54:41.051Z,34.98
2018-10-11T02:57:19.458Z,33.15
2018-10-11T02:59:47.722Z,34.65
2018-10-11T03:02:16.008Z,33.30
2018-10-11T03:04:46.176Z,33.98
2018-10-11T03:07:14.414Z,33.98
2018-10-11T03:09:43.189Z,31.73
2018-10-11T03:12:11.896Z,32.00
2018-10-11T03:14:40.295Z,32.55
2018-10-11T03:17:08.762Z,32.85
2018-10-11T03:19:37.072Z,32.50
2018-10-11T03:22:05.354Z,31.37
2018-10-11T03:24:33.656Z,32.33
2018-10-11T03:27:01.951Z,33.92
2018-10-11T03:29:31.272Z,32.17
2018-10-11T03:31:59.540Z,33.63
2018-10-11T03:34:28.944Z,32.93
2018-10-11T03:36:58.130Z,34.15
2018-10-11T03:39:27.152Z,33.25
2018-10-11T03:41:56.135Z,31.35
2018-10-11T03:44:24.591Z,31.97
2018-10-11T03:46:52.923Z,33.60
2018-10-11T03:49:21.255Z,32.67
2018-10-11T03:51:49.540Z,31.55
2018-10-11T03:54:17.826Z,30.45
2018-10-11T03:56:46.122Z,31.42
2018-10-11T03:59:14.511Z,31.52
2018-10-11T04:01:42.824Z,31.25
2018-10-11T04:04:11.085Z,31.00
2018-10-11T04:06:39.355Z,30.20
2018-10-11T04:09:07.702Z,31.48
2018-10-11T04:11:35.963Z,31.68
2018-10-11T04:14:04.288Z,32.25
2018-10-11T04:16:32.588Z,31.42
2018-10-11T04:19:00.963Z,32.35
2018-10-11T04:21:29.307Z,32.38
2018-10-11T04:23:57.550Z,31.25
2018-10-11T04:26:25.796Z,31.10
2018-10-11T04:28:54.072Z,30.52
2018-10-11T04:31:22.376Z,31.48
2018-10-11T04:33:50.632Z,31.42
2018-10-11T04:36:18.905Z,31.05
2018-10-11T04:38:47.213Z,31.23
2018-10-11T04:41:15.589Z,32.10
2018-10-11T04:43:44.123Z,31.00
2018-10-11T04:46:12.415Z,30.12
2018-10-11T04:48:40.688Z,32.78
2018-10-11T04:51:09.036Z,32.10
2018-10-11T04:53:37.428Z,31.80
2018-10-11T04:56:05.698Z,31.70
2018-10-11T04:58:33.968Z,31.60
2018-10-11T05:01:02.245Z,30.27
2018-10-11T05:03:30.493Z,31.48
2018-10-11T05:05:58.758Z,30.72
2018-10-11T05:08:27.012Z,31.80
2018-10-11T05:10:55.293Z,30.77
2018-10-11T05:13:34.814Z,29.70
2018-10-11T05:16:03.075Z,30.37
2018-10-11T05:18:31.379Z,29.65
2018-10-11T05:20:59.654Z,29.87
2018-10-11T05:23:27.939Z,29.30
2018-10-11T05:25:56.266Z,30.52
2018-10-11T05:28:24.504Z,28.02
2018-10-11T05:30:52.748Z,28.80
2018-10-11T05:33:21.004Z,28.52
2018-10-11T05:35:49.258Z,28.25
2018-10-11T05:38:17.628Z,29.57
2018-10-11T05:40:45.920Z,27.60
2018-10-11T05:43:14.599Z,27.82
2018-10-11T05:45:45.578Z,28.60
2018-10-11T05:48:13.918Z,29.00
2018-10-11T05:50:42.799Z,28.87
2018-10-11T05:53:11.096Z,29.10
2018-10-11T05:55:39.382Z,27.30
2018-10-11T05:58:07.655Z,30.02
2018-10-11T06:00:35.912Z,28.92
2018-10-11T06:03:04.635Z,29.18
2018-10-11T06:05:32.951Z,28.45
2018-10-11T06:08:02.242Z,28.12
2018-10-11T06:10:32.750Z,29.32
2018-10-11T06:13:01.047Z,28.52
2018-10-11T06:15:29.579Z,27.90
2018-10-11T06:17:57.947Z,26.73
2018-10-11T06:20:26.139Z,27.37
2018-10-11T06:22:55.966Z,30.02
2018-10-11T06:25:24.340Z,29.75
2018-10-11T06:27:52.665Z,27.80
2018-10-11T06:30:21.035Z,27.93
2018-10-11T06:32:49.278Z,28.47
2018-10-11T06:35:17.567Z,28.20
2018-10-11T06:37:45.899Z,28.15
2018-10-11T06:40:14.239Z,28.62
2018-10-11T06:42:43.254Z,28.20
2018-10-11T06:45:12.899Z,25.97
2018-10-11T06:47:41.507Z,28.12
2018-10-11T06:50:10.073Z,27.75
2018-10-11T06:52:38.528Z,28.98
2018-10-11T06:55:07.427Z,28.65
2018-10-11T06:57:35.738Z,25.88
2018-10-11T07:00:04.708Z,27.87
2018-10-11T07:02:32.980Z,27.40
2018-10-11T07:05:01.269Z,27.95
2018-10-11T07:07:29.525Z,27.50
2018-10-11T07:09:57.818Z,27.80
2018-10-11T07:12:26.074Z,26.45
2018-10-11T07:14:54.351Z,28.07
2018-10-11T07:17:22.640Z,26.68
2018-10-11T07:19:50.927Z,27.13
2018-10-11T07:22:19.203Z,27.37
2018-10-11T07:24:47.486Z,26.55
2018-10-11T07:27:15.760Z,27.37
2018-10-11T07:29:44.021Z,24.77
2018-10-11T07:32:12.280Z,26.40
2018-10-11T07:34:40.650Z,25.68
2018-10-11T07:37:08.895Z,27.17
2018-10-11T07:39:37.165Z,26.42
2018-10-11T07:42:05.495Z,26.68
2018-10-11T07:44:33.795Z,26.80
2018-10-11T07:47:02.121Z,25.72
2018-10-11T07:49:30.432Z,26.80
2018-10-11T07:51:58.712Z,27.35
2018-10-11T07:54:32.303Z,26.10
2018-10-11T07:57:01.103Z,25.82
2018-10-11T07:59:29.444Z,25.70
2018-10-11T08:01:57.704Z,25.68
2018-10-11T08:04:29.025Z,25.95
2018-10-11T08:06:57.330Z,25.75
2018-10-11T08:09:25.605Z,25.97
2018-10-11T08:11:53.983Z,26.35
2018-10-11T08:14:22.275Z,27.35
2018-10-11T08:16:50.673Z,26.35
2018-10-11T08:19:19.074Z,24.25
2018-10-11T08:21:47.230Z,24.02
2018-10-11T08:24:15.467Z,24.25
2018-10-11T08:26:43.840Z,24.60
2018-10-11T08:29:12.107Z,24.55
2018-10-11T08:31:40.482Z,23.67
2018-10-11T08:34:08.915Z,23.07
2018-10-11T08:36:37.197Z,22.50
2018-10-11T08:39:08.251Z,22.30
2018-10-11T08:41:36.915Z,21.93
2018-10-11T08:44:05.226Z,21.65
2018-10-11T08:46:33.454Z,22.07
2018-10-11T08:49:01.772Z,21.62
2018-10-11T08:51:29.978Z,22.20
2018-10-11T08:54:03.805Z,20.97
2018-10-11T08:56:32.047Z,21.95
2018-10-11T08:59:00.322Z,21.12
2018-10-11T09:01:28.668Z,19.10
2018-10-11T09:03:57.154Z,20.90
2018-10-11T09:06:25.271Z,21.10
2018-10-11T09:08:53.584Z,19.40
2018-10-11T09:11:21.902Z,20.25
2018-10-11T09:13:50.259Z,20.08
2018-10-11T09:16:18.897Z,19.85
2018-10-11T09:18:47.325Z,19.95
2018-10-11T09:21:15.600Z,20.00
2018-10-11T09:23:43.892Z,19.57
2018-10-11T09:26:12.355Z,19.42
2018-10-11T09:28:40.653Z,18.25
2018-10-11T09:31:08.932Z,18.82
2018-10-11T09:33:37.215Z,17.23
2018-10-11T09:36:05.532Z,20.10
2018-10-11T09:38:33.823Z,17.92
2018-10-11T09:41:02.082Z,17.77
2018-10-11T09:43:30.386Z,19.80
2018-10-11T09:45:58.636Z,18.17
2018-10-11T09:48:26.943Z,17.57
2018-10-11T09:50:55.251Z,19.12
2018-10-11T09:53:23.670Z,18.00
2018-10-11T09:55:51.963Z,17.17
2018-10-11T09:58:20.281Z,17.05
2018-10-11T10:00:53.871Z,16.77
2018-10-11T10:03:22.160Z,17.00
2018-10-11T10:05:50.515Z,16.17
2018-10-11T10:08:18.748Z,14.87
2018-10-11T10:10:47.013Z,15.50
2018-10-11T10:13:15.259Z,15.35
2018-10-11T10:15:43.706Z,15.25
2018-10-11T10:18:11.940Z,15.23
2018-10-11T10:20:40.226Z,15.65
2018-10-11T10:23:08.474Z,15.48
2018-10-11T10:25:36.836Z,15.70
2018-10-11T10:28:05.105Z,16.37
2018-10-11T10:30:38.872Z,14.95
2018-10-11T10:33:07.146Z,15.63
2018-10-11T10:35:35.489Z,14.40
2018-10-11T10:38:03.909Z,14.43
2018-10-11T10:40:32.288Z,14.30
2018-10-11T10:43:01.671Z,13.93
2018-10-11T10:45:29.989Z,14.05
2018-10-11T10:47:58.367Z,13.62
2018-10-11T10:50:26.664Z,13.18
2018-10-11T10:52:54.959Z,12.58
2018-10-11T10:55:23.253Z,11.88
2018-10-11T10:57:51.539Z,12.30
2018-10-11T11:00:19.816Z,12.68
2018-10-11T11:02:48.113Z,11.25
2018-10-11T11:05:16.363Z,10.95
2018-10-11T11:07:44.651Z,12.30
2018-10-11T11:10:12.923Z,12.33
2018-10-11T11:12:41.203Z,11.63
2018-10-11T11:15:09.512Z,11.15
2018-10-11T11:17:37.813Z,10.48
2018-10-11T11:20:06.171Z,10.38
2018-10-11T11:22:34.464Z,11.55
2018-10-11T11:25:02.779Z,9.98
2018-10-11T11:27:31.060Z,10.08
2018-10-11T11:29:59.362Z,9.78
2018-10-11T11:32:27.656Z,9.50
2018-10-11T11:34:55.956Z,9.20
2018-10-11T11:37:24.882Z,8.78
2018-10-11T11:39:53.180Z,9.70
2018-10-11T11:42:21.473Z,8.45
2018-10-11T11:44:49.715Z,8.70
2018-10-11T11:47:17.968Z,8.88
2018-10-11T11:49:46.239Z,8.50
2018-10-11T11:52:14.688Z,7.85
2018-10-11T11:54:43.031Z,7.40
2018-10-11T11:57:11.327Z,7.40
2018-10-11T11:59:39.576Z,8.25
2018-10-11T12:02:08.047Z,7.90
2018-10-11T12:04:36.263Z,7.28
2018-10-11T12:07:04.648Z,8.10
2018-10-11T12:09:32.935Z,7.30
2018-10-11T12:12:01.252Z,7.12
2018-10-11T12:14:29.591Z,6.75
2018-10-11T12:16:57.816Z,6.50
2018-10-11T12:19:26.047Z,7.28
2018-10-11T12:21:54.383Z,7.00
2018-10-11T12:24:22.711Z,6.47
2018-10-11T12:26:51.093Z,6.78
2018-10-11T12:29:19.428Z,7.10
2018-10-11T12:31:47.775Z,6.65
2018-10-11T12:34:16.051Z,6.87
2018-10-11T12:36:44.322Z,7.25
2018-10-11T12:39:12.598Z,6.62
2018-10-11T12:41:40.875Z,6.37
2018-10-11T12:44:09.303Z,6.97
2018-10-11T12:46:39.627Z,6.62
2018-10-11T12:49:06.442Z,6.03
2018-10-11T12:51:34.754Z,6.62
2018-10-11T12:54:03.120Z,6.40
2018-10-11T12:56:31.427Z,7.20
2018-10-11T12:58:59.805Z,6.60
2018-10-11T13:01:28.148Z,6.70
2018-10-11T13:03:58.191Z,6.40
2018-10-11T13:06:26.479Z,5.72
2018-10-11T13:08:54.798Z,6.08
2018-10-11T13:11:23.103Z,5.83
2018-10-11T13:13:53.010Z,5.67
2018-10-11T13:16:19.695Z,5.95
2018-10-11T13:18:47.991Z,5.58
2018-10-11T13:21:16.276Z,5.35
2018-10-11T13:23:44.683Z,5.70
2018-10-11T13:26:12.939Z,4.92
2018-10-11T13:28:41.423Z,5.62
2018-10-11T13:31:09.790Z,4.78
2018-10-11T13:33:38.022Z,5.90
2018-10-11T13:36:06.275Z,5.85
2018-10-11T13:38:34.574Z,5.37
2018-10-11T13:41:03.919Z,5.72
2018-10-11T13:43:31.861Z,4.78
2018-10-11T13:46:02.540Z,4.55
2018-10-11T13:48:28.558Z,5.35
2018-10-11T13:50:56.899Z,5.03
2018-10-11T13:53:25.173Z,5.53
2018-10-11T13:55:56.671Z,4.92
2018-10-11T13:58:21.791Z,4.37
2018-10-11T14:00:50.071Z,5.42
2018-10-11T14:03:18.342Z,5.58
2018-10-11T14:05:46.625Z,4.95
2018-10-11T14:08:14.958Z,4.62
2018-10-11T14:10:43.416Z,4.25
2018-10-11T14:13:15.092Z,4.87
2018-10-11T14:15:40.141Z,4.60
2018-10-11T14:18:14.879Z,5.00
2018-10-11T14:20:43.167Z,4.62
2018-10-11T14:23:11.498Z,4.70
2018-10-11T14:25:39.837Z,4.50
2018-10-11T14:28:08.161Z,5.08
2018-10-11T14:30:36.718Z,4.37
2018-10-11T14:33:05.037Z,5.05
2018-10-11T14:35:33.306Z,4.75
2018-10-11T14:38:01.549Z,5.05
2018-10-11T14:40:29.845Z,4.35
2018-10-11T14:42:58.117Z,4.53
2018-10-11T14:45:26.423Z,4.25
2018-10-11T14:47:54.651Z,4.72
2018-10-11T14:50:22.918Z,3.92
2018-10-11T14:52:51.179Z,4.50
2018-10-11T14:55:19.452Z,4.58
2018-10-11T14:57:47.772Z,4.00
2018-10-11T15:00:16.060Z,4.90
2018-10-11T15:02:44.562Z,4.55
2018-10-11T15:05:12.840Z,4.78
2018-10-11T15:07:41.119Z,4.28
2018-10-11T15:10:09.347Z,4.42
2018-10-11T15:12:38.311Z,4.35
2018-10-11T15:15:06.563Z,4.83
2018-10-11T15:17:34.865Z,4.70
2018-10-11T15:20:03.139Z,5.37
2018-10-11T15:22:31.441Z,4.78
2018-10-11T15:24:59.677Z,4.85
2018-10-11T15:27:27.896Z,4.67
2018-10-11T15:29:56.166Z,5.25
2018-10-11T15:32:24.408Z,4.85
2018-10-11T15:34:52.664Z,4.83
2018-10-11T15:37:20.997Z,5.08
2018-10-11T15:39:49.384Z,4.70
2018-10-11T15:42:17.732Z,4.22
2018-10-11T15:44:46.013Z,4.95
2018-10-11T15:47:14.307Z,4.95
2018-10-11T15:49:42.584Z,5.10
2018-10-11T15:52:10.863Z,4.35
2018-10-11T15:54:39.131Z,4.78
2018-10-11T15:57:07.606Z,5.15
2018-10-11T15:59:35.848Z,4.78
2018-10-11T16:02:04.107Z,4.55
2018-10-11T16:04:32.450Z,4.97
2018-10-11T16:07:00.692Z,4.65
2018-10-11T16:09:29.086Z,4.53
2018-10-11T16:11:57.363Z,5.05
2018-10-11T16:14:25.680Z,4.67
2018-10-11T16:16:54.004Z,4.95
2018-10-11T16:19:22.348Z,4.83
2018-10-11T16:21:50.617Z,5.47
2018-10-11T16:24:18.859Z,4.83
2018-10-11T16:26:47.158Z,5.28
2018-10-11T16:29:15.428Z,5.20
2018-10-11T16:31:50.603Z,5.22
2018-10-11T16:34:18.869Z,5.47
2018-10-11T16:36:47.116Z,5.55
2018-10-11T16:39:15.431Z,5.53
2018-10-11T16:41:43.703Z,6.30
2018-10-11T16:44:12.100Z,6.22
2018-10-11T16:46:40.455Z,5.42
2018-10-11T16:49:08.979Z,5.85
2018-10-11T16:51:37.677Z,7.00
2018-10-11T16:54:06.534Z,6.58
2018-10-11T16:56:34.879Z,7.30
2018-10-11T16:59:03.280Z,7.10
2018-10-11T17:01:31.696Z,7.97
2018-10-11T17:03:59.992Z,6.90
2018-10-11T17:06:28.211Z,6.85
2018-10-11T17:08:56.444Z,6.60
2018-10-11T17:11:24.720Z,7.70
2018-10-11T17:13:53.015Z,6.87
2018-10-11T17:16:22.133Z,7.30
2018-10-11T17:18:50.472Z,6.78
2018-10-11T17:21:18.725Z,7.55
2018-10-11T17:23:47.043Z,7.33
2018-10-11T17:26:15.223Z,7.22
2018-10-11T17:28:43.477Z,7.28
2018-10-11T17:31:11.744Z,7.62
2018-10-11T17:33:40.157Z,8.63
2018-10-11T17:36:08.492Z,9.23
2018-10-11T17:38:36.817Z,7.58
2018-10-11T17:41:05.405Z,8.00
2018-10-11T17:43:33.862Z,7.62
2018-10-11T17:46:02.234Z,8.48
2018-10-11T17:48:30.579Z,8.65
2018-10-11T17:50:59.637Z,10.63
2018-10-11T17:53:28.040Z,8.48
2018-10-11T17:55:56.414Z,8.28
2018-10-11T17:58:24.815Z,9.60
2018-10-11T18:00:53.197Z,8.10
2018-10-11T18:03:21.709Z,8.00
2018-10-11T18:05:50.060Z,8.53
2018-10-11T18:08:18.434Z,8.43
2018-10-11T18:10:54.909Z,8.93
2018-10-11T18:13:23.291Z,8.38
2018-10-11T18:15:52.184Z,7.92
2018-10-11T18:18:21.466Z,7.80
2018-10-11T18:20:50.189Z,13.10
2018-10-11T18:23:21.029Z,8.75
2018-10-11T18:25:49.437Z,9.60
2018-10-11T18:28:18.498Z,8.70
2018-10-11T18:30:46.987Z,8.43
2018-10-11T18:33:15.878Z,9.20
2018-10-11T18:35:44.983Z,9.25
2018-10-11T18:38:14.303Z,9.55
2018-10-11T18:40:42.698Z,8.68
2018-10-11T18:43:11.193Z,9.23
2018-10-11T18:45:39.920Z,10.08
2018-10-11T18:48:08.358Z,8.45
2018-10-11T18:50:37.601Z,9.18
2018-10-11T18:53:06.114Z,9.50
2018-10-11T18:55:35.364Z,9.50
2018-10-11T18:58:05.629Z,10.98
2018-10-11T19:00:34.918Z,10.53
2018-10-11T19:03:04.193Z,10.00
2018-10-11T19:05:33.673Z,10.88
2018-10-11T19:08:05.474Z,9.88
2018-10-11T19:10:34.212Z,10.68
2018-10-11T19:13:02.574Z,9.50
2018-10-11T19:15:30.856Z,10.10
2018-10-11T19:17:59.237Z,10.75
2018-10-11T19:20:27.723Z,9.98
2018-10-11T19:22:56.119Z,9.53
2018-10-11T19:25:24.440Z,9.83
2018-10-11T19:27:53.302Z,10.70
2018-10-11T19:30:21.635Z,10.13
2018-10-11T19:32:50.007Z,9.10
2018-10-11T19:35:18.240Z,10.23
2018-10-11T19:37:46.514Z,10.28
2018-10-11T19:40:14.792Z,10.13
2018-10-11T19:42:43.074Z,9.45
2018-10-11T19:45:11.339Z,10.10
2018-10-11T19:47:39.611Z,10.10
2018-10-11T19:50:07.885Z,10.00
2018-10-11T19:52:36.143Z,10.08
2018-10-11T19:55:04.423Z,10.75
2018-10-11T19:57:32.739Z,10.08
2018-10-11T20:00:01.035Z,9.78
2018-10-11T20:02:29.398Z,10.15
2018-10-11T20:04:57.646Z,9.98
2018-10-11T20:07:32.540Z,10.10
2018-10-11T20:10:00.821Z,10.35
2018-10-11T20:12:29.095Z,10.18
2018-10-11T20:14:57.423Z,9.95
2018-10-11T20:17:25.858Z,10.70
2018-10-11T20:19:54.131Z,10.28
2018-10-11T20:22:22.384Z,10.53
2018-10-11T20:24:50.615Z,10.25
2018-10-11T20:27:18.889Z,9.78
2018-10-11T20:29:47.185Z,9.63
2018-10-11T20:32:15.424Z,9.93
2018-10-11T20:34:43.707Z,10.32
2018-10-11T20:37:12.032Z,10.50
2018-10-11T20:39:40.309Z,10.60
2018-10-11T20:42:08.657Z,11.12
2018-10-11T20:44:37.017Z,10.20
2018-10-11T20:47:05.294Z,10.88
2018-10-11T20:49:33.552Z,11.18
2018-10-11T20:52:01.818Z,10.98
2018-10-11T20:54:30.111Z,11.88
2018-10-11T20:56:58.391Z,11.10
2018-10-11T20:59:26.843Z,12.30
2018-10-11T21:01:55.155Z,11.85
2018-10-11T21:04:23.449Z,11.88
2018-10-11T21:06:51.870Z,11.73
2018-10-11T21:09:20.132Z,11.20
2018-10-11T21:11:48.448Z,12.70
2018-10-11T21:14:16.717Z,13.22
2018-10-11T21:16:44.994Z,12.73
2018-10-11T21:19:13.381Z,12.33
2018-10-11T21:21:41.607Z,11.25
2018-10-11T21:24:09.924Z,12.13
2018-10-11T21:26:38.183Z,12.55
2018-10-11T21:29:06.472Z,13.75
2018-10-11T21:31:34.733Z,13.13
2018-10-11T21:34:03.066Z,13.72
2018-10-11T21:36:31.332Z,14.20
2018-10-11T21:38:59.601Z,13.98
2018-10-11T21:41:27.939Z,13.80
2018-10-11T21:43:56.222Z,13.95
2018-10-11T21:46:24.550Z,13.98
2018-10-11T21:48:52.787Z,13.10
2018-10-11T21:51:21.027Z,14.78
2018-10-11T21:53:49.348Z,14.68
2018-10-11T21:56:17.920Z,14.55
2018-10-11T21:58:46.161Z,14.38
2018-10-11T22:01:21.839Z,14.98
2018-10-11T22:03:50.442Z,14.85
2018-10-11T22:06:18.715Z,14.80
2018-10-11T22:08:46.996Z,14.73
2018-10-11T22:11:15.284Z,14.63
2018-10-11T22:13:43.597Z,15.53
2018-10-11T22:16:11.959Z,16.35
2018-10-11T22:18:40.947Z,14.58
2018-10-11T22:21:10.389Z,16.32
2018-10-11T22:23:39.480Z,15.93
2018-10-11T22:26:07.823Z,15.75
2018-10-11T22:28:36.078Z,16.02
2018-10-11T22:31:04.347Z,15.40
2018-10-11T22:33:32.626Z,14.58
2018-10-11T22:36:00.906Z,15.88
2018-10-11T22:38:29.340Z,15.23
2018-10-11T22:40:57.600Z,16.35
2018-10-11T22:43:25.854Z,15.65
2018-10-11T22:45:54.151Z,15.78
2018-10-11T22:48:22.447Z,15.38
2018-10-11T22:50:50.711Z,14.55
2018-10-11T22:53:18.986Z,14.93
2018-10-11T22:55:47.298Z,15.55
2018-10-11T22:58:15.560Z,15.93
2018-10-11T23:00:43.787Z,15.58
2018-10-11T23:03:12.080Z,15.38
2018-10-11T23:05:40.305Z,15.38
2018-10-11T23:08:08.613Z,15.10
2018-10-11T23:10:36.863Z,16.15
2018-10-11T23:13:05.152Z,15.15
2018-10-11T23:15:33.541Z,16.20
2018-10-11T23:18:01.850Z,16.05
2018-10-11T23:20:30.178Z,15.08
2018-10-11T23:22:58.421Z,15.63
2018-10-11T23:25:26.695Z,15.88
2018-10-11T23:27:55.010Z,14.80
2018-10-11T23:30:23.351Z,15.20
2018-10-11T23:32:51.584Z,15.23
2018-10-11T23:35:19.835Z,15.03
2018-10-11T23:37:48.139Z,14.90
2018-10-11T23:40:16.387Z,14.53
2018-10-11T23:42:44.624Z,13.18
2018-10-11T23:45:13.115Z,14.73
2018-10-11T23:47:42.318Z,13.80
2018-10-11T23:50:10.631Z,15.85
2018-10-11T23:52:38.915Z,16.17
2018-10-11T23:55:07.579Z,16.50
2018-10-11T23:57:35.856Z,15.93
